Pollock, ID

10:03 PM PDT on July 24, 2014 (GMT -0700)
Idaho Cnty AP, Grangeville, I (KGIC) Elev 3314 ft | 45.94 °N, 116.12 °W | Change Station

Current weather conditions updated 8 minutes ago

Clear
Clear
53 °F
Feels Like 53 °F
N
6
Wind Variable Wind from SE

Tomorrow is forecast to be Much Warmer than today.

Today
High -- | Low -- °F
--% Chance of Precip.
Yesterday
High -- | Low -- °F
Precip. -- in
5:21 AM 8:22 PM
Waning Crescent, 3% visible
Pressure 30.20 in
Visibility 10.0 miles
Clouds Clear
Dew Point 42 °F
Humidity 65%
Rainfall 0.00 in
Snow Depth 0 in , 1 in
UV 0 out of 12
Pollen 6.30 out of 12
PM2.5 Good
Flu Activity Not available.
METAR KGIC 250455Z AUTO 13005KT 10SM CLR 12/05 A3020 RMK AO1 T01160053

More Conditions Fewer Conditions

Pressure 30.20 in
Visibility 10.0 miles
Clouds Clear
Dew Point 42 °F
Humidity 65%
Rainfall 0.00 in
Snow Depth 0 in , 1 in
UV 0 out of 12
Pollen 6.30 out of 12
PM2.5 Good
Flu Activity Not available.
METAR KGIC 250455Z AUTO 13005KT 10SM CLR 12/05 A3020 RMK AO1 T01160053

More Conditions Fewer Conditions

10-Day Weather Forecast

Almanac

Astronomy

Jul. 24, 2014 Rise Set
Actual Time 5:21 AM PDT 8:22 PM PDT
Civil Twilight 4:46 AM PDT 8:56 PM PDT
Nautical Twilight 4:01 AM PDT 9:41 PM PDT
Astronomical Twilight 3:07 AM PDT 10:35 PM PDT
Moon 3:33 AM PDT (7/24) 6:38 PM PDT (7/24)
Length of Visible Light 16h 10m
Length of Day
15h 00m
Tomorrow will be 2m 9s shorter.
Waning Crescent, 3% of the Moon is Illuminated
Jul 25
Waning Crescent
Jul 26
New
Aug 3
First Quarter
Aug 10
Full
Aug 17
Last Quarter

Yesterday's Extremes

State Highs State Lows

Community

WunderPhotos

Upload Photos

1,737,245 photos uploaded!

Nearby

Air Quality

  Air Quality AQ Index Pollutant
Yesterday Good
PM2.5
Current Good
PM2.5
Thursday Good
PM2.5
Friday Good
PM2.5
Saturday Good
PM2.5

Snow Depth

Station Depth Elevation
West Branch 0 in 5560 ft
Brundage Reservoir 1 in 6300 ft
Bear Basin 0 in 5350 ft
Squaw Flat 0 in 6240 ft
Long Valley 0 in 4890 ft

Earthquake Activity

City Distance Mag. Time & Date
No recent earthquake activity has been reported nearby.
Minimum magnitude displayed is 2.5.

Coastal Water Temperatures

Place Temperature
No Stations Reporting

Nearby Weather Stations

Station Location Temp. Dew Point Humidity Wind Precip. Elev Updated Type
ITD Smokey Boulder ID , New Meadows, ID 55 °F 43 °F 64% NW  at  2 mph 0.00 in / hr 3829 ft 10:15 PM MDT MADIS
RAWS SNAKE RIVER ID, Oxbow, OR 60 °F 35 °F 39% ENE  at  3 mph 0.00 in / hr 4375 ft 8:46 PM PDT MADIS
RAWS SKI HILL ID, New Meadows, ID 58 °F 32 °F 37% WNW  at  4 mph 0.00 in / hr 5296 ft 9:58 PM MDT MADIS

Show More Stations Show Fewer Stations